Time;durP1;ratioP1;P1;durP2;ratioP2;P2;SDS_P1;SDS_P2;PMS_P1;PMS_P2;Temp;Humidity;BMP_temperature;BMP_pressure;BME280_temperature;BME280_humidity;BME280_pressure;Samples;Min_cycle;Max_cycle;Signal;HPM_P1;HPM_P2
2021/01/01 00:00:15;;;;;;;;;;;;;;;19.98;46.45;100241.84;5120461;28;750;-45
2021/01/01 00:02:41;;;;;;;;;;;;;;;19.85;46.96;100244.63;5120148;28;856;-44
2021/01/01 00:05:07;;;;;;;;;;;;;;;20.15;46.13;100246.72;5119373;27;925;-44
2021/01/01 00:07:33;;;;;;;;;;;;;;;19.88;46.97;100246.75;5119869;27;1914;-45
2021/01/01 00:09:58;;;;;;;;;;;;;;;19.78;47.09;100245.84;5129140;27;1078;-48
2021/01/01 00:12:23;;;;;;;;;;;;;;;19.88;46.63;100252.28;5140613;27;769;-45
2021/01/01 00:14:49;;;;;;;;;;;;;;;19.89;46.54;100259.44;5140076;27;766;-46
2021/01/01 00:17:14;;;;;;;;;;;;;;;19.82;46.97;100276.41;5140886;27;781;-46
2021/01/01 00:19:40;;;;;;;;;;;;;;;19.74;47.11;100286.19;5140093;27;809;-45
2021/01/01 00:22:09;;;;;;;;;;;;;;;19.75;46.92;100287.81;5121396;27;948;-48
2021/01/01 00:24:34;;;;;;;;;;;;;;;19.80;47.04;100292.47;5119977;28;735;-46
2021/01/01 00:27:01;;;;;;;;;;;;;;;19.68;47.13;100287.41;5133860;27;831;-46
2021/01/01 00:29:26;;;;;;;;;;;;;;;19.65;47.12;100288.84;5140018;27;1976;-43
2021/01/01 00:31:52;;;;;;;;;;;;;;;19.66;47.14;100290.47;5140336;27;770;-44
2021/01/01 00:34:17;;;;;;;;;;;;;;;19.42;47.92;100298.13;5139875;27;774;-44
2021/01/01 00:36:42;;;;;;;;;;;;;;;19.69;47.28;100291.00;5125489;27;957;-44
2021/01/01 00:39:08;;;;;;;;;;;;;;;19.66;47.24;100296.00;5119822;28;807;-46
2021/01/01 00:41:34;;;;;;;;;;;;;;;19.61;47.13;100290.56;5119069;28;739;-44
2021/01/01 00:43:59;;;;;;;;;;;;;;;19.69;47.18;100288.25;5119207;28;810;-44
2021/01/01 00:46:25;;;;;;;;;;;;;;;19.62;47.26;100283.13;5101377;28;1096;-44
2021/01/01 00:48:50;;;;;;;;;;;;;;;19.51;47.53;100298.25;5118965;28;1909;-44
2021/01/01 00:51:25;;;;;;;;;;;;;;;19.47;47.55;100292.50;5128160;27;958;-44
2021/01/01 00:53:51;;;;;;;;;;;;;;;19.43;47.58;100302.50;5139747;27;790;-45
2021/01/01 00:56:20;;;;;;;;;;;;;;;19.45;47.50;100301.09;5139369;27;880;-47
2021/01/01 00:58:45;;;;;;;;;;;;;;;19.56;47.09;100295.38;5139577;27;809;-44
2021/01/01 01:01:11;;;;;;;;;;;;;;;19.48;47.57;100310.69;5139510;27;797;-46
2021/01/01 01:03:36;;;;;;;;;;;;;;;19.63;47.05;100318.69;5138875;27;770;-46
2021/01/01 01:06:01;;;;;;;;;;;;;;;19.51;47.26;100314.78;5128579;27;995;-46
2021/01/01 01:08:27;;;;;;;;;;;;;;;19.45;47.72;100316.81;5118931;28;1968;-45
2021/01/01 01:10:52;;;;;;;;;;;;;;;19.56;47.31;100311.91;5135241;27;1102;-45
2021/01/01 01:13:18;;;;;;;;;;;;;;;19.42;47.48;100317.41;5139542;27;798;-45
2021/01/01 01:15:43;;;;;;;;;;;;;;;19.52;47.21;100321.91;5139463;27;838;-44
2021/01/01 01:18:08;;;;;;;;;;;;;;;19.54;47.13;100325.22;5138966;27;838;-45
2021/01/01 01:20:34;;;;;;;;;;;;;;;19.48;47.38;100325.28;5133208;27;940;-44
2021/01/01 01:22:59;;;;;;;;;;;;;;;19.60;47.05;100326.72;5119113;28;830;-44
2021/01/01 01:25:25;;;;;;;;;;;;;;;19.63;47.14;100326.16;5118067;28;806;-45
2021/01/01 01:27:50;;;;;;;;;;;;;;;19.48;47.57;100322.53;5132752;27;1909;-44
2021/01/01 01:30:16;;;;;;;;;;;;;;;19.53;47.35;100318.03;5139519;27;771;-44
2021/01/01 01:32:41;;;;;;;;;;;;;;;19.35;47.62;100322.50;5138669;27;818;-44
2021/01/01 01:35:07;;;;;;;;;;;;;;;19.51;47.30;100321.13;5136808;27;953;-44
2021/01/01 01:37:32;;;;;;;;;;;;;;;19.60;47.01;100315.69;5118514;27;794;-47
2021/01/01 01:39:58;;;;;;;;;;;;;;;19.47;47.29;100320.09;5118030;28;743;-44
2021/01/01 01:42:23;;;;;;;;;;;;;;;19.47;47.22;100328.34;5118505;28;822;-45
2021/01/01 01:44:49;;;;;;;;;;;;;;;19.60;46.95;100327.56;5118086;28;975;-44
2021/01/01 01:47:16;;;;;;;;;;;;;;;19.93;46.11;100324.72;5118649;28;720;-45
2021/01/01 01:49:42;;;;;;;;;;;;;;;19.71;46.51;100324.59;5116936;28;2115;-46
2021/01/01 01:52:07;;;;;;;;;;;;;;;19.59;46.93;100316.84;5117961;27;996;-45
2021/01/01 01:54:32;;;;;;;;;;;;;;;19.74;46.48;100318.47;5117719;28;793;-48
2021/01/01 01:56:58;;;;;;;;;;;;;;;19.70;46.50;100312.75;5117867;28;850;-45
2021/01/01 01:59:23;;;;;;;;;;;;;;;19.72;46.56;100309.69;5118067;28;819;-45
2021/01/01 02:01:49;;;;;;;;;;;;;;;19.54;47.37;100303.94;5117598;28;758;-44
2021/01/01 02:04:14;;;;;;;;;;;;;;;19.78;46.39;100302.94;5117836;28;786;-44
2021/01/01 02:06:41;;;;;;;;;;;;;;;19.74;46.46;100302.75;5117989;27;1008;-44
2021/01/01 02:09:07;;;;;;;;;;;;;;;19.56;46.88;100309.16;5119182;27;1917;-44
2021/01/01 02:11:32;;;;;;;;;;;;;;;19.39;47.51;100312.50;5136819;27;914;-44
2021/01/01 02:13:58;;;;;;;;;;;;;;;19.51;47.29;100317.53;5136682;27;963;-44
2021/01/01 02:16:26;;;;;;;;;;;;;;;19.65;46.72;100323.88;5136388;27;817;-48
2021/01/01 02:18:51;;;;;;;;;;;;;;;19.53;47.12;100323.56;5138196;27;769;-44
2021/01/01 02:21:17;;;;;;;;;;;;;;;19.52;47.33;100333.78;5126148;27;933;-44
2021/01/01 02:23:43;;;;;;;;;;;;;;;19.47;47.43;100326.44;5117078;28;746;-44
2021/01/01 02:26:08;;;;;;;;;;;;;;;19.37;47.52;100336.81;5117503;28;806;-44
2021/01/01 02:28:34;;;;;;;;;;;;;;;19.55;47.12;100332.38;5117308;28;1977;-46
2021/01/01 02:30:59;;;;;;;;;;;;;;;19.53;47.07;100329.06;5117316;28;861;-45
2021/01/01 02:33:25;;;;;;;;;;;;;;;19.67;46.65;100329.94;5117070;28;821;-44
2021/01/01 02:35:50;;;;;;;;;;;;;;;19.58;47.04;100326.22;5116852;27;973;-44
2021/01/01 02:38:16;;;;;;;;;;;;;;;19.48;47.05;100322.53;5117134;28;735;-44
2021/01/01 02:40:41;;;;;;;;;;;;;;;19.66;46.70;100325.53;5117054;28;778;-44
2021/01/01 02:43:06;;;;;;;;;;;;;;;19.65;46.68;100329.41;5117318;28;774;-46
2021/01/01 02:45:32;;;;;;;;;;;;;;;19.46;47.26;100333.06;5116982;28;1047;-44
2021/01/01 02:47:59;;;;;;;;;;;;;;;19.60;46.77;100323.97;5116788;28;1972;-45
2021/01/01 02:50:24;;;;;;;;;;;;;;;19.48;47.07;100328.06;5116161;27;1059;-44
2021/01/01 02:52:50;;;;;;;;;;;;;;;19.35;47.49;100328.84;5116769;28;811;-44
2021/01/01 02:55:15;;;;;;;;;;;;;;;19.52;46.93;100322.75;5116698;28;755;-44
2021/01/01 02:57:41;;;;;;;;;;;;;;;19.61;46.76;100323.66;5117008;28;839;-45
2021/01/01 03:00:06;;;;;;;;;;;;;;;19.48;47.02;100322.53;5117127;28;767;-44
2021/01/01 03:02:32;;;;;;;;;;;;;;;19.48;47.23;100321.72;5116540;28;834;-45
2021/01/01 03:04:57;;;;;;;;;;;;;;;19.71;46.75;100324.59;5116846;27;961;-44
2021/01/01 03:07:22;;;;;;;;;;;;;;;19.63;46.67;100329.72;5116918;27;1913;-46
2021/01/01 03:09:48;;;;;;;;;;;;;;;19.59;47.03;100330.63;5124271;27;1169;-44
2021/01/01 03:12:13;;;;;;;;;;;;;;;19.68;46.69;100350.84;5137269;27;738;-47
2021/01/01 03:14:39;;;;;;;;;;;;;;;19.53;46.86;100346.47;5137320;27;770;-49
2021/01/01 03:17:04;;;;;;;;;;;;;;;19.36;47.31;100358.03;5137394;27;731;-45
2021/01/01 03:19:30;;;;;;;;;;;;;;;19.45;47.28;100364.50;5137183;27;549;-44
2021/01/01 03:21:55;;;;;;;;;;;;;;;19.45;47.10;100355.44;5119793;27;1011;-44
2021/01/01 03:24:20;;;;;;;;;;;;;;;19.37;47.34;100365.19;5116618;28;719;-44
2021/01/01 03:26:46;;;;;;;;;;;;;;;19.37;47.35;100365.19;5116485;28;763;-46
2021/01/01 03:29:11;;;;;;;;;;;;;;;19.26;47.43;100367.31;5120236;28;1982;-44
2021/01/01 03:31:37;;;;;;;;;;;;;;;19.40;47.22;100369.28;5120623;28;743;-44
2021/01/01 03:34:02;;;;;;;;;;;;;;;19.45;46.95;100369.22;5120909;27;817;-48
2021/01/01 03:36:27;;;;;;;;;;;;;;;19.52;46.89;100377.91;5120458;27;1016;-46
2021/01/01 03:38:54;;;;;;;;;;;;;;;19.53;46.86;100378.72;5120474;28;781;-47
2021/01/01 03:41:20;;;;;;;;;;;;;;;19.45;46.99;100381.06;5120602;28;738;-46
2021/01/01 03:43:45;;;;;;;;;;;;;;;19.52;46.80;100383.44;5120653;28;857;-44
2021/01/01 03:46:10;;;;;;;;;;;;;;;19.56;46.72;100378.09;5120216;28;1054;-45
2021/01/01 03:48:36;;;;;;;;;;;;;;;19.43;47.11;100388.00;5120700;28;1959;-44
2021/01/01 03:51:01;;;;;;;;;;;;;;;19.55;46.63;100377.28;5120235;27;1019;-44
2021/01/01 03:53:27;;;;;;;;;;;;;;;19.54;46.97;100374.84;5120076;28;810;-45
2021/01/01 03:55:52;;;;;;;;;;;;;;;19.52;46.79;100374.31;5120327;28;843;-45
2021/01/01 03:58:18;;;;;;;;;;;;;;;19.49;46.75;100373.81;5120466;27;814;-44
2021/01/01 04:00:43;;;;;;;;;;;;;;;19.37;47.31;100375.44;5119893;28;751;-46
2021/01/01 04:03:08;;;;;;;;;;;;;;;19.65;46.53;100376.28;5120132;28;818;-46
2021/01/01 04:05:34;;;;;;;;;;;;;;;19.50;46.74;100377.38;5119943;27;1031;-44
2021/01/01 04:08:00;;;;;;;;;;;;;;;19.41;47.41;100381.97;5119667;28;1925;-44
2021/01/01 04:10:25;;;;;;;;;;;;;;;19.59;46.70;100394.88;5133246;27;1157;-45
2021/01/01 04:12:51;;;;;;;;;;;;;;;19.31;47.37;100399.50;5140674;27;873;-48
2021/01/01 04:15:16;;;;;;;;;;;;;;;19.31;47.44;100405.81;5129548;27;960;-45
2021/01/01 04:17:41;;;;;;;;;;;;;;;19.31;47.17;100407.78;5120104;28;824;-45
2021/01/01 04:20:07;;;;;;;;;;;;;;;19.31;47.17;100405.81;5119533;27;1097;-45
2021/01/01 04:22:32;;;;;;;;;;;;;;;19.28;47.37;100408.38;5119360;28;519;-45
2021/01/01 04:24:58;;;;;;;;;;;;;;;19.23;47.56;100400.19;5119870;28;822;-44
2021/01/01 04:27:23;;;;;;;;;;;;;;;19.07;48.09;100418.88;5137909;27;1911;-47
2021/01/01 04:29:49;;;;;;;;;;;;;;;19.31;47.38;100421.56;5139875;27;747;-47
2021/01/01 04:32:14;;;;;;;;;;;;;;;19.39;46.88;100429.16;5140246;27;790;-46
2021/01/01 04:34:39;;;;;;;;;;;;;;;19.27;47.29;100434.31;5140539;27;774;-48
2021/01/01 04:37:05;;;;;;;;;;;;;;;19.31;47.26;100430.63;5120932;27;1050;-45
2021/01/01 04:39:30;;;;;;;;;;;;;;;19.26;47.37;100436.22;5119596;28;790;-47
2021/01/01 04:41:56;;;;;;;;;;;;;;;19.15;47.68;100452.13;5119742;28;713;-45
2021/01/01 04:44:22;;;;;;;;;;;;;;;19.36;47.12;100451.78;5117934;28;795;-52
2021/01/01 04:46:47;;;;;;;;;;;;;;;19.33;47.00;100446.88;5119335;28;1056;-45
2021/01/01 04:49:13;;;;;;;;;;;;;;;19.42;46.73;100450.59;5117928;28;1921;-46
2021/01/01 04:51:38;;;;;;;;;;;;;;;19.18;47.63;100449.88;5131832;27;1009;-46
2021/01/01 04:54:04;;;;;;;;;;;;;;;19.23;47.33;100460.81;5139310;27;810;-52
2021/01/01 04:56:29;;;;;;;;;;;;;;;19.31;47.00;100465.66;5138293;27;802;-51
2021/01/01 04:58:55;;;;;;;;;;;;;;;19.22;47.20;100460.00;5145378;27;1461;-47
2021/01/01 05:01:24;;;;;;;;;;;;;;;19.25;47.16;100461.34;5141300;27;1371;-48
2021/01/01 05:03:49;;;;;;;;;;;;;;;19.43;46.64;100460.50;5139438;27;865;-44
2021/01/01 05:06:25;;;;;;;;;;;;;;;19.33;46.79;100463.41;5128348;27;957;-45
2021/01/01 05:08:51;;;;;;;;;;;;;;;19.39;46.84;100461.41;5118618;28;1917;-45
2021/01/01 05:11:16;;;;;;;;;;;;;;;19.37;46.82;100463.66;5139199;27;1269;-47
2021/01/01 05:13:42;;;;;;;;;;;;;;;19.37;46.77;100469.16;5138151;27;1357;-48
2021/01/01 05:16:16;;;;;;;;;;;;;;;19.26;47.11;100468.50;5137925;27;1304;-48
2021/01/01 05:18:41;;;;;;;;;;;;;;;19.36;46.89;100473.03;5139406;27;861;-52
2021/01/01 05:21:07;;;;;;;;;;;;;;;19.37;46.74;100481.00;5128912;27;936;-48
2021/01/01 05:23:32;;;;;;;;;;;;;;;19.51;46.48;100485.75;5117214;28;810;-52
2021/01/01 05:26:27;;;;;;;;;;;;;;;19.46;46.49;100490.25;5117510;28;1211;-51
2021/01/01 05:28:53;;;;;;;;;;;;;;;19.40;46.69;100496.13;5109295;28;1984;-48
2021/01/01 05:31:19;;;;;;;;;;;;;;;19.11;47.65;100497.94;5118447;28;841;-50
2021/01/01 05:33:55;;;;;;;;;;;;;;;20.10;45.20;100491.66;5118620;28;743;-52
2021/01/01 05:36:36;;;;;;;;;;;;;;;20.45;43.81;100492.91;5117898;27;1076;-48
2021/01/01 05:39:03;;;;;;;;;;;;;;;19.96;45.13;100499.91;5118326;28;790;-48
2021/01/01 05:41:41;;;;;;;;;;;;;;;19.89;45.50;100496.75;5121374;27;842;-47
2021/01/01 05:44:21;;;;;;;;;;;;;;;19.41;46.37;100497.78;5137537;27;814;-45
2021/01/01 05:46:53;;;;;;;;;;;;;;;19.55;46.54;100503.34;5138452;27;1152;-48
2021/01/01 05:49:18;;;;;;;;;;;;;;;20.57;44.05;100511.75;5138785;27;1917;-46
2021/01/01 05:51:44;;;;;;;;;;;;;;;19.98;45.11;100511.50;5122245;27;1020;-55
2021/01/01 05:54:10;;;;;;;;;;;;;;;19.81;45.54;100515.63;5118354;28;798;-48
2021/01/01 05:56:37;;;;;;;;;;;;;;;19.53;46.17;100516.59;5118300;28;802;-47
2021/01/01 05:59:02;;;;;;;;;;;;;;;19.06;47.42;100525.56;5116489;28;755;-46
2021/01/01 06:01:28;;;;;;;;;;;;;;;19.28;47.22;100526.91;5135040;27;1041;-54
2021/01/01 06:03:54;;;;;;;;;;;;;;;20.35;44.53;100526.25;5137988;27;723;-51
2021/01/01 06:06:19;;;;;;;;;;;;;;;20.46;43.99;100527.69;5125700;27;976;-48
2021/01/01 06:08:45;;;;;;;;;;;;;;;20.19;44.65;100528.50;5116239;28;1984;-50
2021/01/01 06:11:10;;;;;;;;;;;;;;;19.74;45.64;100526.19;5135962;27;1242;-47
2021/01/01 06:13:36;;;;;;;;;;;;;;;19.21;47.11;100527.28;5136285;27;1285;-45
2021/01/01 06:16:02;;;;;;;;;;;;;;;19.01;47.61;100536.63;5138328;27;833;-48
2021/01/01 06:18:34;;;;;;;;;;;;;;;19.52;46.47;100529.59;5138304;27;751;-46
2021/01/01 06:21:03;;;;;;;;;;;;;;;20.54;44.12;100533.63;5128245;27;996;-47
2021/01/01 06:23:32;;;;;;;;;;;;;;;20.06;44.97;100540.31;5117439;28;827;-51
2021/01/01 06:26:00;;;;;;;;;;;;;;;20.11;44.98;100534.72;5117498;28;763;-53
2021/01/01 06:28:26;;;;;;;;;;;;;;;19.45;46.19;100537.41;5117049;28;1972;-47
2021/01/01 06:30:53;;;;;;;;;;;;;;;19.07;46.74;100538.22;5117499;28;750;-52
2021/01/01 06:33:18;;;;;;;;;;;;;;;19.67;46.22;100539.56;5115874;28;758;-47
2021/01/01 06:35:43;;;;;;;;;;;;;;;20.46;44.05;100547.03;5116922;27;961;-55
2021/01/01 06:38:09;;;;;;;;;;;;;;;20.06;45.27;100554.94;5117414;28;738;-46
2021/01/01 06:40:35;;;;;;;;;;;;;;;19.98;45.11;100550.94;5116984;28;747;-49
2021/01/01 06:43:07;;;;;;;;;;;;;;;19.51;46.35;100551.94;5116961;27;754;-51
2021/01/01 06:45:41;;;;;;;;;;;;;;;19.09;46.84;100557.22;5117477;28;991;-49
2021/01/01 06:48:07;;;;;;;;;;;;;;;20.24;44.59;100563.47;5117017;28;1918;-49
2021/01/01 06:50:33;;;;;;;;;;;;;;;20.48;44.03;100563.28;5116486;27;961;-48
2021/01/01 06:53:11;;;;;;;;;;;;;;;20.07;44.88;100567.63;5115408;28;872;-50
2021/01/01 06:55:37;;;;;;;;;;;;;;;19.75;45.90;100563.69;5117279;27;878;-55
2021/01/01 06:58:03;;;;;;;;;;;;;;;19.34;46.61;100575.34;5117438;28;822;-51
2021/01/01 07:00:47;;;;;;;;;;;;;;;19.05;47.30;100578.22;5116920;28;731;-54
2021/01/01 07:03:34;;;;;;;;;;;;;;;20.36;44.56;100572.09;5116143;28;826;-51
2021/01/01 07:06:00;;;;;;;;;;;;;;;20.10;45.06;100578.03;5116747;27;945;-47
2021/01/01 07:11:26;;;;;;;;;;;;;;;19.52;46.31;100581.13;5135716;27;1193;-55
2021/01/01 07:13:51;;;;;;;;;;;;;;;19.15;46.68;100589.94;5137484;27;1569;-51
2021/01/01 07:16:20;;;;;;;;;;;;;;;19.51;46.74;100585.03;5137324;27;830;-51
2021/01/01 07:18:46;;;;;;;;;;;;;;;20.71;43.38;100589.13;5137406;27;766;-45
2021/01/01 07:21:13;;;;;;;;;;;;;;;20.20;44.63;100588.09;5125756;27;988;-47
2021/01/01 07:23:38;;;;;;;;;;;;;;;20.21;44.75;100583.41;5116906;28;747;-51
2021/01/01 07:26:04;;;;;;;;;;;;;;;19.61;45.85;100595.91;5117157;28;806;-50
2021/01/01 07:28:30;;;;;;;;;;;;;;;19.25;46.41;100593.66;5116276;28;1933;-51
2021/01/01 07:30:55;;;;;;;;;;;;;;;19.49;46.61;100596.38;5116726;28;778;-44
2021/01/01 07:33:21;;;;;;;;;;;;;;;20.52;44.07;100608.50;5116648;28;786;-46
2021/01/01 07:35:50;;;;;;;;;;;;;;;20.17;44.52;100613.53;5115713;27;1004;-45
2021/01/01 07:38:15;;;;;;;;;;;;;;;19.97;45.27;100628.50;5116655;28;854;-45
2021/01/01 07:40:41;;;;;;;;;;;;;;;19.73;45.91;100634.91;5115101;28;843;-50
2021/01/01 07:43:06;;;;;;;;;;;;;;;19.31;46.68;100636.59;5115192;28;739;-45
2021/01/01 07:45:31;;;;;;;;;;;;;;;19.22;47.07;100644.69;5115473;28;1173;-47
2021/01/01 07:47:57;;;;;;;;;;;;;;;19.36;46.75;100655.81;5116625;28;1910;-47
2021/01/01 07:50:22;;;;;;;;;;;;;;;19.56;46.08;100657.50;5118671;27;1008;-47
2021/01/01 07:53:00;;;;;;;;;;;;;;;19.72;45.81;100658.09;5137082;27;807;-48
2021/01/01 07:55:25;;;;;;;;;;;;;;;19.89;45.22;100662.31;5135874;28;783;-44
2021/01/01 07:57:50;;;;;;;;;;;;;;;19.85;45.44;100667.59;5136609;27;814;-49
2021/01/01 08:00:16;;;;;;;;;;;;;;;19.95;45.13;100667.44;5135846;28;1479;-45
2021/01/01 08:02:42;;;;;;;;;;;;;;;19.95;45.08;100663.84;5136797;27;727;-45
2021/01/01 08:05:07;;;;;;;;;;;;;;;20.08;45.04;100674.16;5133253;27;956;-48
2021/01/01 08:07:33;;;;;;;;;;;;;;;20.05;45.19;100673.91;5116912;28;1913;-47
2021/01/01 08:09:58;;;;;;;;;;;;;;;20.17;44.87;100677.03;5125545;28;1385;-49
2021/01/01 08:12:24;;;;;;;;;;;;;;;20.16;44.61;100681.75;5136516;27;850;-45
2021/01/01 08:14:50;;;;;;;;;;;;;;;20.11;44.90;100676.31;5139690;27;750;-48
2021/01/01 08:17:31;;;;;;;;;;;;;;;20.22;44.75;100687.22;5140488;27;779;-48
2021/01/01 08:19:56;;;;;;;;;;;;;;;20.14;44.62;100681.22;5139947;27;976;-48
2021/01/01 08:22:24;;;;;;;;;;;;;;;20.25;44.69;100687.41;5120301;27;1020;-46
2021/01/01 08:24:50;;;;;;;;;;;;;;;20.24;44.72;100690.47;5120063;28;834;-49
2021/01/01 08:27:16;;;;;;;;;;;;;;;20.17;44.72;100691.69;5119726;28;476;-47
2021/01/01 08:29:41;;;;;;;;;;;;;;;20.18;44.80;100698.00;5118390;28;1910;-46
2021/01/01 08:32:06;;;;;;;;;;;;;;;19.76;45.63;100702.47;5117960;28;974;-49
2021/01/01 08:34:32;;;;;;;;;;;;;;;19.63;45.91;100704.03;5119578;28;767;-46
2021/01/01 08:36:57;;;;;;;;;;;;;;;19.70;45.76;100698.97;5119217;27;1020;-50
2021/01/01 08:39:23;;;;;;;;;;;;;;;19.96;45.44;100685.66;5119882;28;739;-47
2021/01/01 08:41:49;;;;;;;;;;;;;;;20.01;45.24;100684.75;5119346;28;850;-48
2021/01/01 08:44:16;;;;;;;;;;;;;;;20.09;45.07;100695.13;5119561;28;739;-47
2021/01/01 08:46:42;;;;;;;;;;;;;;;20.20;44.82;100700.47;5119354;27;1010;-47
2021/01/01 08:49:15;;;;;;;;;;;;;;;20.10;45.03;100696.75;5117994;28;1970;-44
2021/01/01 08:51:41;;;;;;;;;;;;;;;20.28;44.40;100697.03;5119289;27;1020;-47
2021/01/01 08:54:06;;;;;;;;;;;;;;;20.02;45.21;100693.84;5119522;27;759;-47
2021/01/01 08:56:31;;;;;;;;;;;;;;;19.79;45.55;100702.72;5118087;28;826;-49
2021/01/01 08:59:07;;;;;;;;;;;;;;;19.65;45.90;100702.59;5118025;28;811;-51
2021/01/01 09:01:32;;;;;;;;;;;;;;;19.83;45.53;100701.00;5119544;28;770;-48
2021/01/01 09:04:01;;;;;;;;;;;;;;;20.07;45.13;100691.00;5119038;28;782;-53
2021/01/01 09:06:26;;;;;;;;;;;;;;;20.01;45.26;100690.28;5119309;27;1019;-47
2021/01/01 09:09:02;;;;;;;;;;;;;;;20.17;44.69;100699.97;5119095;28;1906;-46
2021/01/01 09:11:27;;;;;;;;;;;;;;;20.18;44.66;100703.53;5118736;28;771;-43
2021/01/01 09:14:02;;;;;;;;;;;;;;;20.24;44.59;100702.31;5118935;28;802;-51
2021/01/01 09:16:28;;;;;;;;;;;;;;;20.40;44.10;100707.59;5119450;28;821;-48
2021/01/01 09:18:53;;;;;;;;;;;;;;;20.26;44.90;100715.81;5118553;28;1097;-46
2021/01/01 09:21:19;;;;;;;;;;;;;;;20.50;44.36;100705.50;5121776;27;989;-49
2021/01/01 09:23:51;;;;;;;;;;;;;;;20.44;44.63;100712.25;5138480;27;865;-50
2021/01/01 09:26:21;;;;;;;;;;;;;;;20.11;45.06;100703.91;5137776;27;767;-45
2021/01/01 09:28:46;;;;;;;;;;;;;;;19.76;45.89;100717.06;5139197;27;1910;-56
2021/01/01 09:31:13;;;;;;;;;;;;;;;19.67;46.42;100713.34;5138059;27;786;-56
2021/01/01 09:33:39;;;;;;;;;;;;;;;19.71;46.29;100710.81;5138614;27;754;-45
2021/01/01 09:36:04;;;;;;;;;;;;;;;19.80;45.90;100707.13;5128828;27;1016;-52
2021/01/01 09:38:30;;;;;;;;;;;;;;;19.97;45.60;100711.31;5130205;27;814;-49
2021/01/01 09:40:55;;;;;;;;;;;;;;;20.00;45.53;100707.94;5138458;27;853;-51
2021/01/01 09:43:21;;;;;;;;;;;;;;;20.06;45.56;100705.94;5138883;27;850;-47
2021/01/01 09:45:46;;;;;;;;;;;;;;;20.40;44.40;100697.41;5138848;27;1185;-45
2021/01/01 09:48:11;;;;;;;;;;;;;;;20.45;44.42;100697.28;5138984;27;1978;-46
2021/01/01 09:50:37;;;;;;;;;;;;;;;20.60;43.81;100687.94;5132339;27;940;-45
2021/01/01 09:53:02;;;;;;;;;;;;;;;20.50;43.87;100694.44;5137484;27;831;-49
2021/01/01 09:55:28;;;;;;;;;;;;;;;20.20;44.75;100694.94;5138320;27;778;-56
2021/01/01 09:57:54;;;;;;;;;;;;;;;19.79;45.48;100697.19;5138724;27;897;-59
2021/01/01 10:00:20;;;;;;;;;;;;;;;19.44;46.52;100693.75;5138547;27;885;-55
2021/01/01 10:02:45;;;;;;;;;;;;;;;19.40;46.60;100692.72;5138060;27;747;-51
2021/01/01 10:05:11;;;;;;;;;;;;;;;19.62;46.31;100696.84;5135853;27;1011;-52
2021/01/01 10:07:36;;;;;;;;;;;;;;;19.96;45.53;100693.94;5117680;28;1913;-50
2021/01/01 10:10:05;;;;;;;;;;;;;;;20.26;44.83;100699.25;5127171;27;1106;-58
2021/01/01 10:12:30;;;;;;;;;;;;;;;20.40;44.12;100696.56;5138335;27;827;-57
2021/01/01 10:14:57;;;;;;;;;;;;;;;20.56;43.86;100691.59;5138078;27;805;-52
2021/01/01 10:17:23;;;;;;;;;;;;;;;20.49;43.84;100681.75;5138026;27;803;-56
2021/01/01 10:19:48;;;;;;;;;;;;;;;20.50;44.10;100682.59;5138271;27;755;-45
2021/01/01 10:22:14;;;;;;;;;;;;;;;20.58;43.70;100681.06;5118021;27;944;-48
2021/01/01 10:24:39;;;;;;;;;;;;;;;20.47;43.96;100675.72;5117860;28;748;-46
2021/01/01 10:27:05;;;;;;;;;;;;;;;20.63;43.90;100672.69;5117265;28;803;-48
2021/01/01 10:29:30;;;;;;;;;;;;;;;20.58;43.73;100672.78;5117279;28;1894;-51
2021/01/01 10:32:00;;;;;;;;;;;;;;;20.17;44.88;100675.13;5117641;28;827;-45
2021/01/01 10:34:26;;;;;;;;;;;;;;;19.92;45.37;100673.56;5117378;28;858;-45
2021/01/01 10:36:51;;;;;;;;;;;;;;;19.91;45.36;100666.41;5116486;27;1005;-52
2021/01/01 10:39:17;;;;;;;;;;;;;;;20.29;44.47;100671.88;5117324;27;862;-46
2021/01/01 10:41:42;;;;;;;;;;;;;;;20.44;44.24;100676.34;5116865;28;803;-48
2021/01/01 10:44:08;;;;;;;;;;;;;;;20.61;43.71;100677.72;5115823;28;1391;-50
2021/01/01 10:46:34;;;;;;;;;;;;;;;20.76;43.58;100679.41;5117051;28;1153;-47
2021/01/01 10:49:00;;;;;;;;;;;;;;;20.67;43.47;100680.09;5116736;28;1909;-57
2021/01/01 10:51:25;;;;;;;;;;;;;;;20.12;44.78;100682.66;5116622;27;1020;-48
2021/01/01 10:53:51;;;;;;;;;;;;;;;19.82;45.41;100680.06;5117125;28;731;-47
2021/01/01 10:56:22;;;;;;;;;;;;;;;19.87;45.43;100687.44;5116579;28;783;-55
2021/01/01 10:58:48;;;;;;;;;;;;;;;20.01;45.10;100693.03;5116900;28;827;-57
2021/01/01 11:01:16;;;;;;;;;;;;;;;20.29;44.48;100693.16;5117080;28;750;-48
2021/01/01 11:03:41;;;;;;;;;;;;;;;20.48;44.13;100687.59;5116445;28;743;-55
2021/01/01 11:06:07;;;;;;;;;;;;;;;20.68;43.55;100689.22;5116432;27;1003;-47
2021/01/01 11:08:32;;;;;;;;;;;;;;;20.69;43.68;100685.31;5117426;28;1921;-52
2021/01/01 11:10:58;;;;;;;;;;;;;;;20.59;43.83;100685.47;5133947;27;1094;-48
2021/01/01 11:13:23;;;;;;;;;;;;;;;20.47;43.76;100680.44;5137241;27;810;-46
2021/01/01 12:25:12;;;;;;;;;;;;;;;20.58;44.32;100744.59;5105440;28;1357;-46
2021/01/01 12:27:37;;;;;;;;;;;;;;;20.61;44.08;100747.59;5119739;28;770;-59
2021/01/01 12:30:08;;;;;;;;;;;;;;;20.70;44.00;100756.03;5118269;28;1986;-48
2021/01/01 12:32:34;;;;;;;;;;;;;;;20.60;44.16;100751.47;5119441;28;826;-58
2021/01/01 12:34:59;;;;;;;;;;;;;;;20.59;43.95;100752.59;5119276;27;1004;-53
2021/01/01 12:37:25;;;;;;;;;;;;;;;20.71;43.86;100760.44;5140584;27;996;-56
2021/01/01 12:39:51;;;;;;;;;;;;;;;20.74;43.89;100759.84;5139847;27;819;-52
2021/01/01 12:42:16;;;;;;;;;;;;;;;20.73;43.97;100760.13;5140304;27;763;-49
2021/01/01 12:44:41;;;;;;;;;;;;;;;20.39;44.56;100756.50;5139564;27;1127;-58
2021/01/01 12:47:07;;;;;;;;;;;;;;;20.64;44.03;100760.78;5139596;27;830;-58
2021/01/01 12:49:32;;;;;;;;;;;;;;;20.79;43.84;100761.69;5140185;27;1906;-57
2021/01/01 12:51:58;;;;;;;;;;;;;;;20.80;44.01;100761.41;5122368;27;956;-56
2021/01/01 12:54:23;;;;;;;;;;;;;;;20.88;43.92;100759.88;5118944;28;815;-52
2021/01/01 12:56:48;;;;;;;;;;;;;;;21.01;43.82;100766.56;5119155;28;870;-59
2021/01/01 12:59:14;;;;;;;;;;;;;;;21.09;43.64;100765.84;5118207;27;826;-47
2021/01/01 13:01:39;;;;;;;;;;;;;;;21.14;43.38;100768.53;5117430;28;814;-58
2021/01/01 13:04:05;;;;;;;;;;;;;;;20.99;43.47;100774.34;5119611;28;806;-55
2021/01/01 13:06:30;;;;;;;;;;;;;;;21.16;43.11;100771.81;5118986;27;969;-55
2021/01/01 13:09:01;;;;;;;;;;;;;;;21.17;43.07;100773.44;5118672;27;1976;-50
2021/01/01 13:11:27;;;;;;;;;;;;;;;21.20;43.18;100770.06;5139792;27;846;-55
2021/01/01 13:13:53;;;;;;;;;;;;;;;21.11;43.31;100782.97;5139670;27;766;-49
2021/01/01 13:16:20;;;;;;;;;;;;;;;21.19;42.90;100781.44;5139257;27;767;-46
2021/01/01 13:18:45;;;;;;;;;;;;;;;21.09;43.13;100781.63;5139541;27;811;-49
2021/01/01 13:21:11;;;;;;;;;;;;;;;21.10;43.43;100778.56;5128246;27;960;-48
2021/01/01 13:23:39;;;;;;;;;;;;;;;21.06;43.43;100796.06;5118401;28;759;-45
2021/01/01 13:26:04;;;;;;;;;;;;;;;21.30;42.82;100790.38;5119431;27;770;-51
2021/01/01 13:28:30;;;;;;;;;;;;;;;21.23;42.79;100793.53;5118668;28;1901;-48
2021/01/01 13:30:55;;;;;;;;;;;;;;;21.14;43.13;100796.19;5118473;28;754;-48
2021/01/01 13:33:21;;;;;;;;;;;;;;;21.27;42.81;100802.06;5118632;28;766;-49
2021/01/01 13:35:51;;;;;;;;;;;;;;;21.38;42.63;100797.97;5118378;27;961;-57
2021/01/01 13:38:17;;;;;;;;;;;;;;;21.17;42.69;100809.41;5118204;28;842;-54
2021/01/01 13:40:42;;;;;;;;;;;;;;;21.19;43.03;100796.06;5118501;28;802;-56
2021/01/01 13:43:08;;;;;;;;;;;;;;;21.31;42.86;100798.38;5118183;28;751;-53
2021/01/01 13:45:33;;;;;;;;;;;;;;;21.27;42.37;100804.81;5117843;28;1010;-45
2021/01/01 13:47:59;;;;;;;;;;;;;;;21.19;42.96;100804.38;5117149;28;1905;-51
2021/01/01 13:50:24;;;;;;;;;;;;;;;21.30;42.74;100813.31;5118058;27;1012;-49
2021/01/01 13:52:50;;;;;;;;;;;;;;;21.09;43.17;100815.63;5135562;27;827;-55
2021/01/01 13:55:15;;;;;;;;;;;;;;;21.22;43.00;100822.31;5138734;27;830;-45
2021/01/01 13:57:41;;;;;;;;;;;;;;;21.30;42.50;100820.78;5138527;27;762;-49
2021/01/01 14:00:06;;;;;;;;;;;;;;;21.24;42.79;100827.53;5138445;27;818;-47